sensor_id;sensor_type;location;lat;lon;timestamp;P1;durP1;ratioP1;P2;durP2;ratioP2
14470;SDS011;7321;50.802;4.336;2023-04-24T00:00:01;21.03;;;14.23;;
14470;SDS011;7321;50.802;4.336;2023-04-24T00:02:38;22.07;;;14.47;;
14470;SDS011;7321;50.802;4.336;2023-04-24T00:05:05;20.10;;;14.27;;
14470;SDS011;7321;50.802;4.336;2023-04-24T00:07:34;19.37;;;13.47;;
14470;SDS011;7321;50.802;4.336;2023-04-24T00:10:00;22.50;;;14.67;;
14470;SDS011;7321;50.802;4.336;2023-04-24T00:12:26;20.27;;;13.43;;
14470;SDS011;7321;50.802;4.336;2023-04-24T00:14:52;17.80;;;13.73;;
14470;SDS011;7321;50.802;4.336;2023-04-24T00:17:18;22.37;;;13.93;;
14470;SDS011;7321;50.802;4.336;2023-04-24T00:19:47;19.37;;;13.50;;
14470;SDS011;7321;50.802;4.336;2023-04-24T00:22:13;16.37;;;13.90;;
14470;SDS011;7321;50.802;4.336;2023-04-24T00:24:39;19.47;;;13.80;;
14470;SDS011;7321;50.802;4.336;2023-04-24T00:27:05;21.63;;;14.63;;
14470;SDS011;7321;50.802;4.336;2023-04-24T00:29:31;17.07;;;13.43;;
14470;SDS011;7321;50.802;4.336;2023-04-24T00:31:57;18.80;;;14.23;;
14470;SDS011;7321;50.802;4.336;2023-04-24T00:34:23;22.07;;;14.20;;
14470;SDS011;7321;50.802;4.336;2023-04-24T00:36:49;21.37;;;14.73;;
14470;SDS011;7321;50.802;4.336;2023-04-24T00:39:20;18.97;;;13.97;;
14470;SDS011;7321;50.802;4.336;2023-04-24T00:41:47;19.60;;;15.03;;
14470;SDS011;7321;50.802;4.336;2023-04-24T00:44:14;19.90;;;13.93;;
14470;SDS011;7321;50.802;4.336;2023-04-24T00:46:40;21.60;;;14.23;;
14470;SDS011;7321;50.802;4.336;2023-04-24T00:49:07;17.70;;;14.37;;
14470;SDS011;7321;50.802;4.336;2023-04-24T00:51:33;18.40;;;14.53;;
14470;SDS011;7321;50.802;4.336;2023-04-24T00:53:59;18.37;;;14.37;;
14470;SDS011;7321;50.802;4.336;2023-04-24T00:56:26;19.73;;;14.10;;
14470;SDS011;7321;50.802;4.336;2023-04-24T00:58:52;17.10;;;14.17;;
14470;SDS011;7321;50.802;4.336;2023-04-24T01:01:19;20.60;;;14.53;;
14470;SDS011;7321;50.802;4.336;2023-04-24T01:03:47;22.30;;;14.93;;
14470;SDS011;7321;50.802;4.336;2023-04-24T01:06:16;17.60;;;13.93;;
14470;SDS011;7321;50.802;4.336;2023-04-24T01:08:43;18.40;;;14.80;;
14470;SDS011;7321;50.802;4.336;2023-04-24T01:11:11;20.43;;;14.27;;
14470;SDS011;7321;50.802;4.336;2023-04-24T01:13:37;20.87;;;14.07;;
14470;SDS011;7321;50.802;4.336;2023-04-24T01:16:03;21.57;;;15.00;;
14470;SDS011;7321;50.802;4.336;2023-04-24T01:18:29;19.90;;;14.83;;
14470;SDS011;7321;50.802;4.336;2023-04-24T01:20:58;18.93;;;14.63;;
14470;SDS011;7321;50.802;4.336;2023-04-24T01:23:28;20.40;;;14.47;;
14470;SDS011;7321;50.802;4.336;2023-04-24T01:25:53;22.50;;;15.87;;
14470;SDS011;7321;50.802;4.336;2023-04-24T01:28:19;19.37;;;13.87;;
14470;SDS011;7321;50.802;4.336;2023-04-24T01:30:46;19.13;;;13.43;;
14470;SDS011;7321;50.802;4.336;2023-04-24T01:33:12;19.23;;;14.17;;
14470;SDS011;7321;50.802;4.336;2023-04-24T01:35:38;18.80;;;13.47;;
14470;SDS011;7321;50.802;4.336;2023-04-24T01:38:04;16.03;;;13.57;;
14470;SDS011;7321;50.802;4.336;2023-04-24T01:40:31;18.87;;;13.97;;
14470;SDS011;7321;50.802;4.336;2023-04-24T01:42:58;19.93;;;15.50;;
14470;SDS011;7321;50.802;4.336;2023-04-24T01:45:24;19.97;;;14.53;;
14470;SDS011;7321;50.802;4.336;2023-04-24T01:47:50;22.97;;;15.87;;
14470;SDS011;7321;50.802;4.336;2023-04-24T01:50:16;21.33;;;15.73;;
14470;SDS011;7321;50.802;4.336;2023-04-24T01:52:43;20.83;;;15.63;;
14470;SDS011;7321;50.802;4.336;2023-04-24T01:55:09;18.07;;;15.33;;
14470;SDS011;7321;50.802;4.336;2023-04-24T01:57:35;26.93;;;16.67;;
14470;SDS011;7321;50.802;4.336;2023-04-24T02:00:02;23.40;;;17.27;;
14470;SDS011;7321;50.802;4.336;2023-04-24T02:02:30;21.70;;;16.70;;
14470;SDS011;7321;50.802;4.336;2023-04-24T02:04:56;19.90;;;16.73;;
14470;SDS011;7321;50.802;4.336;2023-04-24T02:07:22;25.37;;;16.83;;
14470;SDS011;7321;50.802;4.336;2023-04-24T02:09:48;25.87;;;16.37;;
14470;SDS011;7321;50.802;4.336;2023-04-24T02:12:14;26.67;;;18.07;;
14470;SDS011;7321;50.802;4.336;2023-04-24T02:14:42;24.30;;;17.30;;
14470;SDS011;7321;50.802;4.336;2023-04-24T02:17:09;21.80;;;16.90;;
14470;SDS011;7321;50.802;4.336;2023-04-24T02:19:35;22.20;;;17.50;;
14470;SDS011;7321;50.802;4.336;2023-04-24T02:22:00;24.70;;;18.20;;
14470;SDS011;7321;50.802;4.336;2023-04-24T02:24:26;26.20;;;18.07;;
14470;SDS011;7321;50.802;4.336;2023-04-24T02:26:52;20.23;;;16.90;;
14470;SDS011;7321;50.802;4.336;2023-04-24T02:29:18;23.07;;;17.63;;
14470;SDS011;7321;50.802;4.336;2023-04-24T02:31:43;24.17;;;16.93;;
14470;SDS011;7321;50.802;4.336;2023-04-24T02:34:09;22.03;;;16.60;;
14470;SDS011;7321;50.802;4.336;2023-04-24T02:36:35;21.63;;;15.50;;
14470;SDS011;7321;50.802;4.336;2023-04-24T02:39:01;18.27;;;15.10;;
14470;SDS011;7321;50.802;4.336;2023-04-24T02:41:27;22.63;;;15.30;;
14470;SDS011;7321;50.802;4.336;2023-04-24T02:43:58;17.97;;;15.40;;
14470;SDS011;7321;50.802;4.336;2023-04-24T02:46:24;17.03;;;14.77;;
14470;SDS011;7321;50.802;4.336;2023-04-24T02:48:50;21.43;;;16.03;;
14470;SDS011;7321;50.802;4.336;2023-04-24T02:51:16;19.07;;;16.07;;
14470;SDS011;7321;50.802;4.336;2023-04-24T02:53:42;23.60;;;16.13;;
14470;SDS011;7321;50.802;4.336;2023-04-24T02:56:08;22.33;;;16.73;;
14470;SDS011;7321;50.802;4.336;2023-04-24T02:58:37;18.03;;;14.50;;
14470;SDS011;7321;50.802;4.336;2023-04-24T03:01:03;19.80;;;13.93;;
14470;SDS011;7321;50.802;4.336;2023-04-24T03:03:30;18.67;;;14.27;;
14470;SDS011;7321;50.802;4.336;2023-04-24T03:05:55;21.53;;;14.10;;
14470;SDS011;7321;50.802;4.336;2023-04-24T03:08:22;16.33;;;13.30;;
14470;SDS011;7321;50.802;4.336;2023-04-24T03:10:48;15.17;;;13.00;;
14470;SDS011;7321;50.802;4.336;2023-04-24T03:13:15;17.43;;;12.33;;
14470;SDS011;7321;50.802;4.336;2023-04-24T03:15:41;14.23;;;12.33;;
14470;SDS011;7321;50.802;4.336;2023-04-24T03:18:07;21.00;;;12.97;;
14470;SDS011;7321;50.802;4.336;2023-04-24T03:20:33;17.37;;;11.70;;
14470;SDS011;7321;50.802;4.336;2023-04-24T03:22:59;14.40;;;12.13;;
14470;SDS011;7321;50.802;4.336;2023-04-24T03:25:24;17.00;;;12.33;;
14470;SDS011;7321;50.802;4.336;2023-04-24T03:27:50;14.87;;;12.43;;
14470;SDS011;7321;50.802;4.336;2023-04-24T03:30:16;14.63;;;13.10;;
14470;SDS011;7321;50.802;4.336;2023-04-24T03:32:42;19.23;;;13.13;;
14470;SDS011;7321;50.802;4.336;2023-04-24T03:35:08;16.13;;;11.97;;
14470;SDS011;7321;50.802;4.336;2023-04-24T03:37:34;14.13;;;12.63;;
14470;SDS011;7321;50.802;4.336;2023-04-24T03:40:01;14.07;;;12.53;;
14470;SDS011;7321;50.802;4.336;2023-04-24T03:42:27;15.03;;;11.83;;
14470;SDS011;7321;50.802;4.336;2023-04-24T03:44:53;16.67;;;12.23;;
14470;SDS011;7321;50.802;4.336;2023-04-24T03:47:19;14.70;;;11.20;;
14470;SDS011;7321;50.802;4.336;2023-04-24T03:49:45;11.40;;;10.17;;
14470;SDS011;7321;50.802;4.336;2023-04-24T03:52:11;13.37;;;9.07;;
14470;SDS011;7321;50.802;4.336;2023-04-24T03:54:36;12.63;;;9.37;;
14470;SDS011;7321;50.802;4.336;2023-04-24T03:57:02;11.03;;;9.07;;
14470;SDS011;7321;50.802;4.336;2023-04-24T03:59:30;10.60;;;9.10;;
14470;SDS011;7321;50.802;4.336;2023-04-24T04:01:56;9.90;;;8.47;;
14470;SDS011;7321;50.802;4.336;2023-04-24T04:04:21;14.40;;;9.13;;
14470;SDS011;7321;50.802;4.336;2023-04-24T04:06:47;10.40;;;7.90;;
14470;SDS011;7321;50.802;4.336;2023-04-24T04:09:14;10.20;;;8.93;;
14470;SDS011;7321;50.802;4.336;2023-04-24T04:11:40;9.40;;;7.77;;
14470;SDS011;7321;50.802;4.336;2023-04-24T04:14:06;10.07;;;7.97;;
14470;SDS011;7321;50.802;4.336;2023-04-24T04:16:33;10.97;;;7.63;;
14470;SDS011;7321;50.802;4.336;2023-04-24T04:18:59;8.00;;;7.20;;
14470;SDS011;7321;50.802;4.336;2023-04-24T04:21:25;7.70;;;6.90;;
14470;SDS011;7321;50.802;4.336;2023-04-24T04:23:51;7.97;;;6.70;;
14470;SDS011;7321;50.802;4.336;2023-04-24T04:26:17;7.70;;;7.00;;
14470;SDS011;7321;50.802;4.336;2023-04-24T04:28:47;10.17;;;7.47;;
14470;SDS011;7321;50.802;4.336;2023-04-24T04:31:14;8.53;;;7.43;;
14470;SDS011;7321;50.802;4.336;2023-04-24T04:33:44;9.13;;;7.63;;
14470;SDS011;7321;50.802;4.336;2023-04-24T04:36:10;8.80;;;7.83;;
14470;SDS011;7321;50.802;4.336;2023-04-24T04:38:37;8.30;;;7.50;;
14470;SDS011;7321;50.802;4.336;2023-04-24T04:41:03;9.07;;;8.03;;
14470;SDS011;7321;50.802;4.336;2023-04-24T04:43:29;8.07;;;7.27;;
14470;SDS011;7321;50.802;4.336;2023-04-24T04:45:56;10.00;;;8.03;;
14470;SDS011;7321;50.802;4.336;2023-04-24T04:48:23;12.73;;;8.30;;
14470;SDS011;7321;50.802;4.336;2023-04-24T04:50:49;10.37;;;9.03;;
14470;SDS011;7321;50.802;4.336;2023-04-24T04:53:15;12.33;;;9.90;;
14470;SDS011;7321;50.802;4.336;2023-04-24T04:55:40;12.07;;;9.40;;
14470;SDS011;7321;50.802;4.336;2023-04-24T04:58:07;13.03;;;9.17;;
14470;SDS011;7321;50.802;4.336;2023-04-24T05:00:32;14.20;;;10.77;;
14470;SDS011;7321;50.802;4.336;2023-04-24T05:03:01;13.23;;;10.77;;
14470;SDS011;7321;50.802;4.336;2023-04-24T05:05:27;13.90;;;11.40;;
14470;SDS011;7321;50.802;4.336;2023-04-24T05:07:53;16.33;;;12.50;;
14470;SDS011;7321;50.802;4.336;2023-04-24T05:10:19;17.20;;;11.63;;
14470;SDS011;7321;50.802;4.336;2023-04-24T05:12:45;19.60;;;12.77;;
14470;SDS011;7321;50.802;4.336;2023-04-24T05:15:11;35.27;;;28.47;;
14470;SDS011;7321;50.802;4.336;2023-04-24T05:17:36;13.47;;;11.87;;
14470;SDS011;7321;50.802;4.336;2023-04-24T05:20:03;14.77;;;11.60;;
14470;SDS011;7321;50.802;4.336;2023-04-24T05:22:30;16.40;;;12.80;;
14470;SDS011;7321;50.802;4.336;2023-04-24T05:24:56;21.30;;;13.17;;
14470;SDS011;7321;50.802;4.336;2023-04-24T05:27:22;15.63;;;12.73;;
14470;SDS011;7321;50.802;4.336;2023-04-24T05:29:49;21.37;;;14.70;;
14470;SDS011;7321;50.802;4.336;2023-04-24T05:32:15;16.23;;;13.33;;
14470;SDS011;7321;50.802;4.336;2023-04-24T05:34:41;15.63;;;13.17;;
14470;SDS011;7321;50.802;4.336;2023-04-24T05:37:06;17.07;;;13.97;;
14470;SDS011;7321;50.802;4.336;2023-04-24T05:39:35;18.73;;;13.63;;
14470;SDS011;7321;50.802;4.336;2023-04-24T05:42:01;17.13;;;13.07;;
14470;SDS011;7321;50.802;4.336;2023-04-24T05:44:28;16.17;;;13.60;;
14470;SDS011;7321;50.802;4.336;2023-04-24T05:46:54;16.80;;;12.80;;
14470;SDS011;7321;50.802;4.336;2023-04-24T05:49:21;17.23;;;13.00;;
14470;SDS011;7321;50.802;4.336;2023-04-24T05:51:47;16.07;;;12.43;;
14470;SDS011;7321;50.802;4.336;2023-04-24T05:54:12;17.63;;;12.43;;
14470;SDS011;7321;50.802;4.336;2023-04-24T05:56:38;19.53;;;13.57;;
14470;SDS011;7321;50.802;4.336;2023-04-24T05:59:05;15.63;;;12.40;;
14470;SDS011;7321;50.802;4.336;2023-04-24T06:01:31;17.10;;;12.57;;
14470;SDS011;7321;50.802;4.336;2023-04-24T06:03:57;17.20;;;12.57;;
14470;SDS011;7321;50.802;4.336;2023-04-24T06:06:23;16.70;;;13.40;;
14470;SDS011;7321;50.802;4.336;2023-04-24T06:08:50;18.13;;;13.17;;
14470;SDS011;7321;50.802;4.336;2023-04-24T06:11:16;20.33;;;13.87;;
14470;SDS011;7321;50.802;4.336;2023-04-24T06:13:42;20.90;;;13.97;;
14470;SDS011;7321;50.802;4.336;2023-04-24T06:16:08;15.60;;;13.10;;
14470;SDS011;7321;50.802;4.336;2023-04-24T06:18:34;19.37;;;14.00;;
14470;SDS011;7321;50.802;4.336;2023-04-24T06:21:00;20.07;;;13.97;;
14470;SDS011;7321;50.802;4.336;2023-04-24T06:23:25;20.20;;;13.87;;
14470;SDS011;7321;50.802;4.336;2023-04-24T06:25:52;20.70;;;14.83;;
14470;SDS011;7321;50.802;4.336;2023-04-24T06:28:18;21.90;;;14.80;;
14470;SDS011;7321;50.802;4.336;2023-04-24T06:30:43;23.20;;;14.13;;
14470;SDS011;7321;50.802;4.336;2023-04-24T06:33:09;19.17;;;14.67;;
14470;SDS011;7321;50.802;4.336;2023-04-24T06:35:35;24.07;;;15.77;;
14470;SDS011;7321;50.802;4.336;2023-04-24T06:38:03;27.73;;;16.50;;
14470;SDS011;7321;50.802;4.336;2023-04-24T06:40:29;22.30;;;15.13;;
14470;SDS011;7321;50.802;4.336;2023-04-24T06:42:55;25.57;;;16.27;;
14470;SDS011;7321;50.802;4.336;2023-04-24T06:45:22;21.63;;;16.33;;
14470;SDS011;7321;50.802;4.336;2023-04-24T06:47:48;21.33;;;15.87;;
14470;SDS011;7321;50.802;4.336;2023-04-24T06:50:14;23.57;;;16.80;;
14470;SDS011;7321;50.802;4.336;2023-04-24T06:52:41;23.33;;;16.03;;
14470;SDS011;7321;50.802;4.336;2023-04-24T06:55:07;22.50;;;15.53;;
14470;SDS011;7321;50.802;4.336;2023-04-24T06:57:39;25.03;;;15.50;;
14470;SDS011;7321;50.802;4.336;2023-04-24T07:00:05;23.43;;;16.73;;
14470;SDS011;7321;50.802;4.336;2023-04-24T07:02:32;24.43;;;16.80;;
14470;SDS011;7321;50.802;4.336;2023-04-24T07:04:58;23.90;;;16.33;;
14470;SDS011;7321;50.802;4.336;2023-04-24T07:07:24;24.00;;;15.67;;
14470;SDS011;7321;50.802;4.336;2023-04-24T07:09:49;23.83;;;15.77;;
14470;SDS011;7321;50.802;4.336;2023-04-24T07:12:16;22.00;;;16.00;;
14470;SDS011;7321;50.802;4.336;2023-04-24T07:14:42;22.63;;;16.43;;
14470;SDS011;7321;50.802;4.336;2023-04-24T07:17:08;24.57;;;15.97;;
14470;SDS011;7321;50.802;4.336;2023-04-24T07:19:34;27.17;;;16.93;;
14470;SDS011;7321;50.802;4.336;2023-04-24T07:22:02;20.13;;;14.83;;
14470;SDS011;7321;50.802;4.336;2023-04-24T07:24:28;25.77;;;17.47;;
14470;SDS011;7321;50.802;4.336;2023-04-24T07:26:55;28.00;;;17.47;;
14470;SDS011;7321;50.802;4.336;2023-04-24T07:29:22;23.60;;;17.77;;
14470;SDS011;7321;50.802;4.336;2023-04-24T07:31:47;25.13;;;15.50;;
14470;SDS011;7321;50.802;4.336;2023-04-24T07:34:13;21.33;;;15.57;;
14470;SDS011;7321;50.802;4.336;2023-04-24T07:36:40;24.70;;;17.93;;
14470;SDS011;7321;50.802;4.336;2023-04-24T07:39:06;29.40;;;19.27;;
14470;SDS011;7321;50.802;4.336;2023-04-24T07:41:33;20.23;;;15.73;;
14470;SDS011;7321;50.802;4.336;2023-04-24T07:43:59;21.23;;;15.03;;
14470;SDS011;7321;50.802;4.336;2023-04-24T07:46:25;24.67;;;17.43;;
14470;SDS011;7321;50.802;4.336;2023-04-24T07:48:54;26.00;;;19.77;;
14470;SDS011;7321;50.802;4.336;2023-04-24T07:51:20;23.50;;;16.40;;
14470;SDS011;7321;50.802;4.336;2023-04-24T07:53:47;20.83;;;15.53;;
14470;SDS011;7321;50.802;4.336;2023-04-24T07:56:12;24.57;;;14.07;;
14470;SDS011;7321;50.802;4.336;2023-04-24T07:58:38;36.40;;;28.47;;
14470;SDS011;7321;50.802;4.336;2023-04-24T08:01:05;21.03;;;14.07;;
14470;SDS011;7321;50.802;4.336;2023-04-24T08:03:30;23.40;;;13.53;;
14470;SDS011;7321;50.802;4.336;2023-04-24T08:05:57;18.13;;;12.70;;
14470;SDS011;7321;50.802;4.336;2023-04-24T08:08:23;17.23;;;10.90;;
14470;SDS011;7321;50.802;4.336;2023-04-24T08:10:49;15.33;;;11.17;;
14470;SDS011;7321;50.802;4.336;2023-04-24T08:13:15;15.57;;;11.00;;
14470;SDS011;7321;50.802;4.336;2023-04-24T08:15:41;16.50;;;10.70;;
14470;SDS011;7321;50.802;4.336;2023-04-24T08:18:07;17.13;;;9.53;;
14470;SDS011;7321;50.802;4.336;2023-04-24T08:20:33;15.57;;;9.30;;
14470;SDS011;7321;50.802;4.336;2023-04-24T08:22:58;15.00;;;11.47;;
14470;SDS011;7321;50.802;4.336;2023-04-24T08:25:24;17.57;;;12.23;;
14470;SDS011;7321;50.802;4.336;2023-04-24T08:27:50;12.47;;;9.37;;
14470;SDS011;7321;50.802;4.336;2023-04-24T08:30:17;16.87;;;9.93;;
14470;SDS011;7321;50.802;4.336;2023-04-24T08:32:43;15.20;;;10.20;;
14470;SDS011;7321;50.802;4.336;2023-04-24T08:35:12;12.80;;;9.87;;
14470;SDS011;7321;50.802;4.336;2023-04-24T08:37:38;15.00;;;9.73;;
14470;SDS011;7321;50.802;4.336;2023-04-24T08:40:05;14.17;;;9.50;;
14470;SDS011;7321;50.802;4.336;2023-04-24T08:42:42;16.33;;;9.70;;
14470;SDS011;7321;50.802;4.336;2023-04-24T08:45:09;15.33;;;9.80;;
14470;SDS011;7321;50.802;4.336;2023-04-24T08:47:37;13.60;;;8.67;;
14470;SDS011;7321;50.802;4.336;2023-04-24T08:50:04;10.53;;;8.00;;
14470;SDS011;7321;50.802;4.336;2023-04-24T08:52:32;12.67;;;8.53;;
14470;SDS011;7321;50.802;4.336;2023-04-24T08:55:02;12.13;;;7.43;;
14470;SDS011;7321;50.802;4.336;2023-04-24T08:57:29;10.90;;;6.73;;
14470;SDS011;7321;50.802;4.336;2023-04-24T08:59:56;12.10;;;6.90;;
14470;SDS011;7321;50.802;4.336;2023-04-24T09:02:23;11.97;;;6.60;;
14470;SDS011;7321;50.802;4.336;2023-04-24T09:04:50;12.43;;;7.10;;
14470;SDS011;7321;50.802;4.336;2023-04-24T09:07:17;11.27;;;7.03;;
14470;SDS011;7321;50.802;4.336;2023-04-24T09:09:45;10.73;;;6.30;;
14470;SDS011;7321;50.802;4.336;2023-04-24T09:12:11;8.93;;;6.03;;
14470;SDS011;7321;50.802;4.336;2023-04-24T09:14:37;7.63;;;6.10;;
14470;SDS011;7321;50.802;4.336;2023-04-24T09:17:07;9.93;;;5.67;;
14470;SDS011;7321;50.802;4.336;2023-04-24T09:19:33;11.37;;;5.67;;
14470;SDS011;7321;50.802;4.336;2023-04-24T09:21:59;9.57;;;5.43;;
14470;SDS011;7321;50.802;4.336;2023-04-24T09:24:30;8.47;;;5.30;;
14470;SDS011;7321;50.802;4.336;2023-04-24T09:26:56;8.53;;;5.30;;
14470;SDS011;7321;50.802;4.336;2023-04-24T09:29:29;12.20;;;6.87;;
14470;SDS011;7321;50.802;4.336;2023-04-24T09:31:55;11.00;;;7.23;;
14470;SDS011;7321;50.802;4.336;2023-04-24T09:34:21;12.10;;;6.87;;
14470;SDS011;7321;50.802;4.336;2023-04-24T09:36:49;8.60;;;7.50;;
14470;SDS011;7321;50.802;4.336;2023-04-24T09:39:16;8.97;;;6.40;;
14470;SDS011;7321;50.802;4.336;2023-04-24T09:41:45;9.87;;;6.87;;
14470;SDS011;7321;50.802;4.336;2023-04-24T09:44:18;8.83;;;5.90;;
14470;SDS011;7321;50.802;4.336;2023-04-24T09:46:50;7.60;;;5.77;;
14470;SDS011;7321;50.802;4.336;2023-04-24T09:52:06;11.80;;;5.97;;
14470;SDS011;7321;50.802;4.336;2023-04-24T09:54:36;10.20;;;6.10;;
14470;SDS011;7321;50.802;4.336;2023-04-24T09:57:03;8.13;;;5.47;;
14470;SDS011;7321;50.802;4.336;2023-04-24T09:59:29;11.63;;;5.90;;
14470;SDS011;7321;50.802;4.336;2023-04-24T10:01:55;10.20;;;6.23;;
14470;SDS011;7321;50.802;4.336;2023-04-24T10:04:27;11.53;;;5.60;;
14470;SDS011;7321;50.802;4.336;2023-04-24T10:06:54;8.40;;;5.30;;
14470;SDS011;7321;50.802;4.336;2023-04-24T10:09:22;8.70;;;5.80;;
14470;SDS011;7321;50.802;4.336;2023-04-24T10:11:50;7.07;;;5.47;;
14470;SDS011;7321;50.802;4.336;2023-04-24T10:14:19;8.07;;;6.07;;
14470;SDS011;7321;50.802;4.336;2023-04-24T10:16:47;8.93;;;5.60;;
14470;SDS011;7321;50.802;4.336;2023-04-24T10:19:14;10.17;;;5.83;;
14470;SDS011;7321;50.802;4.336;2023-04-24T10:21:41;6.93;;;5.57;;
14470;SDS011;7321;50.802;4.336;2023-04-24T10:24:15;8.87;;;5.83;;
14470;SDS011;7321;50.802;4.336;2023-04-24T10:26:43;13.10;;;6.40;;
14470;SDS011;7321;50.802;4.336;2023-04-24T10:29:11;7.33;;;5.53;;
14470;SDS011;7321;50.802;4.336;2023-04-24T10:31:38;9.53;;;6.60;;
14470;SDS011;7321;50.802;4.336;2023-04-24T10:34:05;9.10;;;7.00;;
14470;SDS011;7321;50.802;4.336;2023-04-24T10:36:33;7.80;;;6.03;;
14470;SDS011;7321;50.802;4.336;2023-04-24T10:39:00;9.47;;;6.23;;
14470;SDS011;7321;50.802;4.336;2023-04-24T10:41:27;9.80;;;6.60;;
14470;SDS011;7321;50.802;4.336;2023-04-24T10:46:38;11.17;;;6.57;;
14470;SDS011;7321;50.802;4.336;2023-04-24T10:49:05;10.10;;;6.83;;
14470;SDS011;7321;50.802;4.336;2023-04-24T10:51:45;7.50;;;6.30;;
14470;SDS011;7321;50.802;4.336;2023-04-24T10:54:29;10.07;;;6.90;;
14470;SDS011;7321;50.802;4.336;2023-04-24T10:59:45;11.93;;;7.20;;
14470;SDS011;7321;50.802;4.336;2023-04-24T11:02:15;10.20;;;6.53;;
14470;SDS011;7321;50.802;4.336;2023-04-24T11:04:42;11.90;;;6.77;;
14470;SDS011;7321;50.802;4.336;2023-04-24T11:07:09;8.70;;;6.50;;
14470;SDS011;7321;50.802;4.336;2023-04-24T11:09:35;8.10;;;6.37;;
14470;SDS011;7321;50.802;4.336;2023-04-24T11:12:20;12.70;;;7.33;;
14470;SDS011;7321;50.802;4.336;2023-04-24T11:17:54;8.43;;;6.67;;
14470;SDS011;7321;50.802;4.336;2023-04-24T11:20:16;9.33;;;6.70;;
14470;SDS011;7321;50.802;4.336;2023-04-24T11:22:43;10.40;;;6.90;;
14470;SDS011;7321;50.802;4.336;2023-04-24T11:25:09;10.53;;;7.63;;
14470;SDS011;7321;50.802;4.336;2023-04-24T11:27:43;8.13;;;6.50;;
14470;SDS011;7321;50.802;4.336;2023-04-24T11:30:11;6.77;;;6.03;;
14470;SDS011;7321;50.802;4.336;2023-04-24T11:32:38;8.67;;;6.23;;
14470;SDS011;7321;50.802;4.336;2023-04-24T11:37:47;8.87;;;6.93;;
14470;SDS011;7321;50.802;4.336;2023-04-24T11:40:14;11.03;;;7.90;;
14470;SDS011;7321;50.802;4.336;2023-04-24T11:42:42;14.83;;;12.20;;
14470;SDS011;7321;50.802;4.336;2023-04-24T11:45:21;10.73;;;8.27;;
14470;SDS011;7321;50.802;4.336;2023-04-24T11:47:52;12.47;;;8.83;;
14470;SDS011;7321;50.802;4.336;2023-04-24T11:50:19;10.53;;;8.90;;
14470;SDS011;7321;50.802;4.336;2023-04-24T11:52:48;10.73;;;7.80;;
14470;SDS011;7321;50.802;4.336;2023-04-24T11:57:48;11.30;;;8.27;;
14470;SDS011;7321;50.802;4.336;2023-04-24T12:00:19;8.27;;;7.47;;
14470;SDS011;7321;50.802;4.336;2023-04-24T12:02:46;11.13;;;8.20;;
14470;SDS011;7321;50.802;4.336;2023-04-24T12:05:23;11.73;;;7.60;;
14470;SDS011;7321;50.802;4.336;2023-04-24T12:07:51;11.20;;;7.83;;
14470;SDS011;7321;50.802;4.336;2023-04-24T12:10:22;10.27;;;7.67;;
14470;SDS011;7321;50.802;4.336;2023-04-24T12:12:50;9.97;;;7.33;;
14470;SDS011;7321;50.802;4.336;2023-04-24T12:15:17;8.87;;;7.17;;
14470;SDS011;7321;50.802;4.336;2023-04-24T12:17:46;8.93;;;7.13;;
14470;SDS011;7321;50.802;4.336;2023-04-24T12:20:13;10.80;;;8.00;;
14470;SDS011;7321;50.802;4.336;2023-04-24T12:22:43;8.23;;;7.23;;
14470;SDS011;7321;50.802;4.336;2023-04-24T12:25:18;9.77;;;7.90;;
14470;SDS011;7321;50.802;4.336;2023-04-24T12:27:45;11.70;;;8.40;;
14470;SDS011;7321;50.802;4.336;2023-04-24T12:30:13;9.17;;;7.10;;
14470;SDS011;7321;50.802;4.336;2023-04-24T12:32:47;8.37;;;7.20;;
14470;SDS011;7321;50.802;4.336;2023-04-24T12:35:18;9.07;;;8.17;;
14470;SDS011;7321;50.802;4.336;2023-04-24T12:37:46;9.40;;;8.03;;
14470;SDS011;7321;50.802;4.336;2023-04-24T12:40:12;12.40;;;8.57;;
14470;SDS011;7321;50.802;4.336;2023-04-24T12:42:46;8.80;;;7.23;;
14470;SDS011;7321;50.802;4.336;2023-04-24T12:45:14;9.77;;;7.20;;
14470;SDS011;7321;50.802;4.336;2023-04-24T12:47:41;11.53;;;7.93;;
14470;SDS011;7321;50.802;4.336;2023-04-24T12:50:08;9.80;;;7.60;;
14470;SDS011;7321;50.802;4.336;2023-04-24T12:52:38;9.17;;;7.23;;
14470;SDS011;7321;50.802;4.336;2023-04-24T12:55:05;8.37;;;7.57;;
14470;SDS011;7321;50.802;4.336;2023-04-24T12:57:35;8.20;;;6.60;;
14470;SDS011;7321;50.802;4.336;2023-04-24T13:00:02;6.50;;;5.90;;
14470;SDS011;7321;50.802;4.336;2023-04-24T13:02:29;7.63;;;5.90;;
14470;SDS011;7321;50.802;4.336;2023-04-24T13:04:56;6.87;;;5.83;;
14470;SDS011;7321;50.802;4.336;2023-04-24T13:07:23;7.67;;;6.70;;
14470;SDS011;7321;50.802;4.336;2023-04-24T13:09:50;9.47;;;6.30;;
14470;SDS011;7321;50.802;4.336;2023-04-24T13:12:42;8.70;;;5.87;;
14470;SDS011;7321;50.802;4.336;2023-04-24T13:15:10;8.67;;;6.30;;
14470;SDS011;7321;50.802;4.336;2023-04-24T13:17:36;6.87;;;5.57;;
14470;SDS011;7321;50.802;4.336;2023-04-24T13:20:02;9.50;;;5.73;;
14470;SDS011;7321;50.802;4.336;2023-04-24T13:22:28;7.00;;;5.40;;
14470;SDS011;7321;50.802;4.336;2023-04-24T13:24:54;7.53;;;4.90;;
14470;SDS011;7321;50.802;4.336;2023-04-24T13:27:19;5.93;;;4.80;;
14470;SDS011;7321;50.802;4.336;2023-04-24T13:29:45;7.83;;;5.87;;
14470;SDS011;7321;50.802;4.336;2023-04-24T13:32:11;6.60;;;5.00;;
14470;SDS011;7321;50.802;4.336;2023-04-24T13:34:37;6.80;;;5.70;;
14470;SDS011;7321;50.802;4.336;2023-04-24T13:37:03;6.20;;;5.60;;
14470;SDS011;7321;50.802;4.336;2023-04-24T13:39:30;6.50;;;4.90;;
14470;SDS011;7321;50.802;4.336;2023-04-24T13:41:55;7.20;;;4.77;;
14470;SDS011;7321;50.802;4.336;2023-04-24T13:44:23;5.10;;;4.20;;
14470;SDS011;7321;50.802;4.336;2023-04-24T13:46:51;7.03;;;4.57;;
14470;SDS011;7321;50.802;4.336;2023-04-24T13:49:19;5.63;;;4.73;;
14470;SDS011;7321;50.802;4.336;2023-04-24T13:51:45;5.57;;;3.70;;
14470;SDS011;7321;50.802;4.336;2023-04-24T13:54:11;6.70;;;4.07;;
14470;SDS011;7321;50.802;4.336;2023-04-24T13:56:38;8.20;;;4.27;;
14470;SDS011;7321;50.802;4.336;2023-04-24T13:59:07;5.67;;;3.80;;
14470;SDS011;7321;50.802;4.336;2023-04-24T14:01:34;5.37;;;3.83;;
14470;SDS011;7321;50.802;4.336;2023-04-24T14:04:00;6.87;;;3.83;;
14470;SDS011;7321;50.802;4.336;2023-04-24T14:06:26;5.90;;;3.80;;
14470;SDS011;7321;50.802;4.336;2023-04-24T14:08:52;4.03;;;3.63;;
14470;SDS011;7321;50.802;4.336;2023-04-24T14:11:18;6.80;;;3.73;;
14470;SDS011;7321;50.802;4.336;2023-04-24T14:13:47;8.57;;;3.97;;
14470;SDS011;7321;50.802;4.336;2023-04-24T14:16:36;5.13;;;3.43;;
14470;SDS011;7321;50.802;4.336;2023-04-24T14:19:02;5.63;;;3.40;;
14470;SDS011;7321;50.802;4.336;2023-04-24T14:21:30;5.47;;;3.43;;
14470;SDS011;7321;50.802;4.336;2023-04-24T14:23:56;4.80;;;2.83;;
14470;SDS011;7321;50.802;4.336;2023-04-24T14:26:22;4.63;;;3.10;;
14470;SDS011;7321;50.802;4.336;2023-04-24T14:28:49;3.13;;;2.80;;
14470;SDS011;7321;50.802;4.336;2023-04-24T14:31:15;2.97;;;2.53;;
14470;SDS011;7321;50.802;4.336;2023-04-24T14:33:41;7.07;;;3.10;;
14470;SDS011;7321;50.802;4.336;2023-04-24T14:36:07;4.37;;;3.07;;
14470;SDS011;7321;50.802;4.336;2023-04-24T14:38:33;3.27;;;2.97;;
14470;SDS011;7321;50.802;4.336;2023-04-24T14:41:00;3.20;;;2.70;;
14470;SDS011;7321;50.802;4.336;2023-04-24T14:43:26;3.47;;;3.03;;
14470;SDS011;7321;50.802;4.336;2023-04-24T14:45:52;3.90;;;2.73;;
14470;SDS011;7321;50.802;4.336;2023-04-24T14:48:18;3.57;;;2.77;;
14470;SDS011;7321;50.802;4.336;2023-04-24T14:50:44;4.80;;;2.73;;
14470;SDS011;7321;50.802;4.336;2023-04-24T14:53:10;5.40;;;3.30;;
14470;SDS011;7321;50.802;4.336;2023-04-24T14:55:36;3.33;;;2.90;;
14470;SDS011;7321;50.802;4.336;2023-04-24T14:58:02;4.50;;;2.90;;
14470;SDS011;7321;50.802;4.336;2023-04-24T15:00:31;3.90;;;2.43;;